sensor_id;sensor_type;location;lat;lon;timestamp;pressure;altitude;pressure_sealevel;temperature;humidity
62697;BME280;48761;42.680;23.312;2023-02-22T00:02:19;94805.31;;;10.29;43.17
62697;BME280;48761;42.680;23.312;2023-02-22T00:04:45;94811.06;;;10.36;42.96
62697;BME280;48761;42.680;23.312;2023-02-22T00:07:11;94810.94;;;10.37;42.82
62697;BME280;48761;42.680;23.312;2023-02-22T00:09:37;94816.78;;;10.42;42.86
62697;BME280;48761;42.680;23.312;2023-02-22T00:12:03;94808.28;;;10.37;42.89
62697;BME280;48761;42.680;23.312;2023-02-22T00:14:29;94809.91;;;10.53;43.14
62697;BME280;48761;42.680;23.312;2023-02-22T00:16:55;94804.69;;;10.38;43.06
62697;BME280;48761;42.680;23.312;2023-02-22T00:19:20;94780.66;;;10.27;43.07
62697;BME280;48761;42.680;23.312;2023-02-22T00:21:51;94816.16;;;10.39;43.03
62697;BME280;48761;42.680;23.312;2023-02-22T00:24:17;94806.81;;;10.33;43.04
62697;BME280;48761;42.680;23.312;2023-02-22T00:26:43;94807.97;;;10.29;42.96
62697;BME280;48761;42.680;23.312;2023-02-22T00:29:09;94810.41;;;10.32;43.03
62697;BME280;48761;42.680;23.312;2023-02-22T00:31:38;94800.84;;;10.16;43.40
62697;BME280;48761;42.680;23.312;2023-02-22T00:34:04;94804.81;;;10.24;43.30
62697;BME280;48761;42.680;23.312;2023-02-22T00:36:30;94801.91;;;10.27;43.25
62697;BME280;48761;42.680;23.312;2023-02-22T00:38:55;94783.22;;;10.15;43.59
62697;BME280;48761;42.680;23.312;2023-02-22T00:41:21;94797.03;;;10.20;43.68
62697;BME280;48761;42.680;23.312;2023-02-22T00:43:47;94797.03;;;10.20;43.55
62697;BME280;48761;42.680;23.312;2023-02-22T00:46:13;94793.72;;;10.17;43.64
62697;BME280;48761;42.680;23.312;2023-02-22T00:48:39;94783.63;;;10.09;43.75
62697;BME280;48761;42.680;23.312;2023-02-22T00:51:05;94787.06;;;10.11;43.72
62697;BME280;48761;42.680;23.312;2023-02-22T00:53:31;94789.47;;;10.14;43.63
62697;BME280;48761;42.680;23.312;2023-02-22T00:55:57;94784.50;;;10.09;43.72
62697;BME280;48761;42.680;23.312;2023-02-22T00:58:23;94767.69;;;10.09;44.09
62697;BME280;48761;42.680;23.312;2023-02-22T01:00:49;94780.91;;;10.24;43.84
62697;BME280;48761;42.680;23.312;2023-02-22T01:03:17;94779.19;;;10.23;43.63
62697;BME280;48761;42.680;23.312;2023-02-22T01:05:44;94773.66;;;10.26;43.77
62697;BME280;48761;42.680;23.312;2023-02-22T01:08:12;94766.84;;;10.22;43.60
62697;BME280;48761;42.680;23.312;2023-02-22T01:10:39;94775.78;;;10.20;44.02
62697;BME280;48761;42.680;23.312;2023-02-22T01:13:06;94777.25;;;9.98;44.43
62697;BME280;48761;42.680;23.312;2023-02-22T01:15:34;94771.94;;;9.98;44.48
62697;BME280;48761;42.680;23.312;2023-02-22T01:18:01;94765.50;;;10.03;44.50
62697;BME280;48761;42.680;23.312;2023-02-22T01:20:28;94728.84;;;9.82;44.53
62697;BME280;48761;42.680;23.312;2023-02-22T01:22:55;94767.16;;;10.04;44.42
62697;BME280;48761;42.680;23.312;2023-02-22T01:25:25;94759.13;;;10.05;44.39
62697;BME280;48761;42.680;23.312;2023-02-22T01:27:52;94752.63;;;9.96;44.42
62697;BME280;48761;42.680;23.312;2023-02-22T01:30:23;94771.66;;;10.03;44.65
62697;BME280;48761;42.680;23.312;2023-02-22T01:32:49;94753.91;;;9.78;45.04
62697;BME280;48761;42.680;23.312;2023-02-22T01:35:18;94753.69;;;9.68;45.50
62697;BME280;48761;42.680;23.312;2023-02-22T01:37:44;94754.78;;;9.78;45.54
62697;BME280;48761;42.680;23.312;2023-02-22T01:40:18;94766.22;;;9.79;45.30
62697;BME280;48761;42.680;23.312;2023-02-22T01:42:49;94761.03;;;9.77;45.29
62697;BME280;48761;42.680;23.312;2023-02-22T01:45:40;94761.56;;;9.82;45.14
62697;BME280;48761;42.680;23.312;2023-02-22T01:48:27;94768.34;;;9.86;44.97
62697;BME280;48761;42.680;23.312;2023-02-22T01:51:08;94753.06;;;9.77;45.22
62697;BME280;48761;42.680;23.312;2023-02-22T01:53:41;94765.38;;;9.91;45.10
62697;BME280;48761;42.680;23.312;2023-02-22T01:56:09;94762.06;;;9.74;45.21
62697;BME280;48761;42.680;23.312;2023-02-22T01:58:37;94763.88;;;9.74;45.56
62697;BME280;48761;42.680;23.312;2023-02-22T02:01:06;94768.66;;;9.82;45.73
62697;BME280;48761;42.680;23.312;2023-02-22T02:03:34;94765.47;;;9.77;45.54
62697;BME280;48761;42.680;23.312;2023-02-22T02:06:04;94769.50;;;9.69;45.66
62697;BME280;48761;42.680;23.312;2023-02-22T02:08:58;94767.72;;;9.70;45.69
62697;BME280;48761;42.680;23.312;2023-02-22T02:11:26;94770.22;;;9.58;45.86
62697;BME280;48761;42.680;23.312;2023-02-22T02:13:53;94770.63;;;9.39;46.57
62697;BME280;48761;42.680;23.312;2023-02-22T02:16:22;94761.06;;;9.36;46.35
62697;BME280;48761;42.680;23.312;2023-02-22T02:18:49;94749.00;;;9.04;47.09
62697;BME280;48761;42.680;23.312;2023-02-22T02:21:35;94743.81;;;8.60;48.20
62697;BME280;48761;42.680;23.312;2023-02-22T02:26:53;94779.34;;;8.14;50.02
62697;BME280;48761;42.680;23.312;2023-02-22T02:39:52;94790.75;;;8.14;50.10
62697;BME280;48761;42.680;23.312;2023-02-22T02:42:28;94789.81;;;8.30;49.77
62697;BME280;48761;42.680;23.312;2023-02-22T02:45:03;94786.59;;;8.25;49.73
62697;BME280;48761;42.680;23.312;2023-02-22T02:47:35;94774.88;;;8.14;49.85
62697;BME280;48761;42.680;23.312;2023-02-22T02:50:28;94796.06;;;8.44;49.16
62697;BME280;48761;42.680;23.312;2023-02-22T02:52:54;94788.28;;;8.55;49.07
62697;BME280;48761;42.680;23.312;2023-02-22T02:55:22;94789.63;;;8.77;48.81
62697;BME280;48761;42.680;23.312;2023-02-22T02:57:48;94797.56;;;8.77;48.35
62697;BME280;48761;42.680;23.312;2023-02-22T03:00:18;94736.66;;;8.33;48.31
62697;BME280;48761;42.680;23.312;2023-02-22T03:02:49;94787.72;;;8.65;48.89
62697;BME280;48761;42.680;23.312;2023-02-22T03:16:49;94791.97;;;8.52;48.67
62697;BME280;48761;42.680;23.312;2023-02-22T03:24:30;94790.19;;;8.68;48.89
62697;BME280;48761;42.680;23.312;2023-02-22T03:27:01;94790.94;;;8.70;48.55
62697;BME280;48761;42.680;23.312;2023-02-22T03:29:29;94786.97;;;8.77;48.48
62697;BME280;48761;42.680;23.312;2023-02-22T03:31:57;94783.34;;;8.78;48.14
62697;BME280;48761;42.680;23.312;2023-02-22T03:34:28;94786.28;;;8.73;48.08
62697;BME280;48761;42.680;23.312;2023-02-22T03:37:11;94787.91;;;8.76;48.18
62697;BME280;48761;42.680;23.312;2023-02-22T03:39:40;94791.84;;;8.83;48.27
62697;BME280;48761;42.680;23.312;2023-02-22T03:42:13;94753.81;;;8.70;48.23
62697;BME280;48761;42.680;23.312;2023-02-22T03:44:42;94789.47;;;8.93;47.97
62697;BME280;48761;42.680;23.312;2023-02-22T03:47:14;94786.69;;;8.95;47.95
62697;BME280;48761;42.680;23.312;2023-02-22T03:49:56;94778.91;;;8.79;47.92
62697;BME280;48761;42.680;23.312;2023-02-22T03:52:26;94787.34;;;8.71;48.39
62697;BME280;48761;42.680;23.312;2023-02-22T03:54:52;94792.84;;;8.38;49.24
62697;BME280;48761;42.680;23.312;2023-02-22T03:57:25;94784.78;;;8.40;49.24
62697;BME280;48761;42.680;23.312;2023-02-22T03:59:53;94793.13;;;8.63;48.96
62697;BME280;48761;42.680;23.312;2023-02-22T04:02:19;94793.56;;;8.55;49.20
62697;BME280;48761;42.680;23.312;2023-02-22T04:04:46;94790.47;;;8.63;49.29
62697;BME280;48761;42.680;23.312;2023-02-22T04:07:12;94788.19;;;8.57;49.50
62697;BME280;48761;42.680;23.312;2023-02-22T04:09:38;94781.78;;;8.61;49.14
62697;BME280;48761;42.680;23.312;2023-02-22T04:12:04;94753.41;;;8.34;49.27
62697;BME280;48761;42.680;23.312;2023-02-22T04:14:30;94785.28;;;8.47;49.49
62697;BME280;48761;42.680;23.312;2023-02-22T04:16:56;94790.19;;;8.53;49.42
62697;BME280;48761;42.680;23.312;2023-02-22T04:19:22;94786.03;;;7.76;51.30
62697;BME280;48761;42.680;23.312;2023-02-22T04:21:48;94793.50;;;7.38;52.78
62697;BME280;48761;42.680;23.312;2023-02-22T04:24:14;94780.75;;;7.14;53.39
62697;BME280;48761;42.680;23.312;2023-02-22T04:26:40;94768.06;;;7.04;53.58
62697;BME280;48761;42.680;23.312;2023-02-22T04:29:06;94778.69;;;7.19;53.36
62697;BME280;48761;42.680;23.312;2023-02-22T04:31:33;94795.69;;;7.15;54.15
62697;BME280;48761;42.680;23.312;2023-02-22T04:34:00;94777.88;;;6.86;54.53
62697;BME280;48761;42.680;23.312;2023-02-22T04:36:26;94782.25;;;6.71;55.07
62697;BME280;48761;42.680;23.312;2023-02-22T04:38:53;94797.13;;;7.04;54.41
62697;BME280;48761;42.680;23.312;2023-02-22T04:41:19;94754.75;;;7.06;53.25
62697;BME280;48761;42.680;23.312;2023-02-22T04:43:45;94784.88;;;6.87;54.77
62697;BME280;48761;42.680;23.312;2023-02-22T04:46:12;94777.38;;;6.63;54.89
62697;BME280;48761;42.680;23.312;2023-02-22T04:48:38;94783.88;;;6.90;54.38
62697;BME280;48761;42.680;23.312;2023-02-22T04:51:05;94804.66;;;6.64;54.79
62697;BME280;48761;42.680;23.312;2023-02-22T04:53:31;94798.88;;;6.57;55.54
62697;BME280;48761;42.680;23.312;2023-02-22T04:55:56;94797.31;;;6.53;55.46
62697;BME280;48761;42.680;23.312;2023-02-22T04:58:22;94778.16;;;6.81;54.41
62697;BME280;48761;42.680;23.312;2023-02-22T05:00:48;94800.88;;;7.00;53.39
62697;BME280;48761;42.680;23.312;2023-02-22T05:03:14;94802.97;;;6.95;53.79
62697;BME280;48761;42.680;23.312;2023-02-22T05:05:41;94801.00;;;6.82;54.05
62697;BME280;48761;42.680;23.312;2023-02-22T05:08:07;94796.50;;;6.52;54.43
62697;BME280;48761;42.680;23.312;2023-02-22T05:10:32;94814.38;;;6.47;54.80
62697;BME280;48761;42.680;23.312;2023-02-22T05:12:58;94815.19;;;6.31;55.58
62697;BME280;48761;42.680;23.312;2023-02-22T05:15:24;94808.72;;;6.03;56.11
62697;BME280;48761;42.680;23.312;2023-02-22T05:17:51;94800.53;;;5.91;56.22
62697;BME280;48761;42.680;23.312;2023-02-22T05:20:25;94818.81;;;6.12;56.13
62697;BME280;48761;42.680;23.312;2023-02-22T05:22:51;94805.44;;;6.15;55.68
62697;BME280;48761;42.680;23.312;2023-02-22T05:25:17;94814.09;;;6.35;55.80
62697;BME280;48761;42.680;23.312;2023-02-22T05:27:43;94825.34;;;6.39;55.43
62697;BME280;48761;42.680;23.312;2023-02-22T05:30:10;94831.16;;;6.62;54.67
62697;BME280;48761;42.680;23.312;2023-02-22T05:32:36;94832.78;;;6.81;54.49
62697;BME280;48761;42.680;23.312;2023-02-22T05:35:02;94831.53;;;7.35;53.88
62697;BME280;48761;42.680;23.312;2023-02-22T05:37:28;94832.91;;;7.73;53.45
62697;BME280;48761;42.680;23.312;2023-02-22T05:39:54;94834.44;;;8.22;52.34
62697;BME280;48761;42.680;23.312;2023-02-22T05:42:20;94830.34;;;8.61;51.55
62697;BME280;48761;42.680;23.312;2023-02-22T05:44:46;94851.41;;;8.92;50.82
62697;BME280;48761;42.680;23.312;2023-02-22T05:47:12;94843.28;;;9.08;50.00
62697;BME280;48761;42.680;23.312;2023-02-22T05:49:38;94846.81;;;9.37;49.82
62697;BME280;48761;42.680;23.312;2023-02-22T05:52:04;94838.75;;;9.38;49.03
62697;BME280;48761;42.680;23.312;2023-02-22T05:54:30;94840.19;;;9.57;48.92
62697;BME280;48761;42.680;23.312;2023-02-22T05:56:56;94845.88;;;9.92;48.17
62697;BME280;48761;42.680;23.312;2023-02-22T05:59:21;94837.59;;;9.96;47.66
62697;BME280;48761;42.680;23.312;2023-02-22T06:01:47;94838.25;;;10.00;47.44
62697;BME280;48761;42.680;23.312;2023-02-22T06:04:13;94850.38;;;10.17;46.61
62697;BME280;48761;42.680;23.312;2023-02-22T06:06:39;94855.06;;;10.40;46.66
62697;BME280;48761;42.680;23.312;2023-02-22T06:09:06;94824.22;;;10.37;46.09
62697;BME280;48761;42.680;23.312;2023-02-22T06:11:32;94822.13;;;10.56;46.46
62697;BME280;48761;42.680;23.312;2023-02-22T06:13:58;94864.16;;;11.01;45.60
62697;BME280;48761;42.680;23.312;2023-02-22T06:16:24;94851.34;;;11.19;44.95
62697;BME280;48761;42.680;23.312;2023-02-22T06:18:50;94855.41;;;11.12;44.78
62697;BME280;48761;42.680;23.312;2023-02-22T06:21:16;94824.44;;;10.73;44.82
62697;BME280;48761;42.680;23.312;2023-02-22T06:23:42;94855.28;;;10.63;45.36
62697;BME280;48761;42.680;23.312;2023-02-22T06:26:07;94852.72;;;10.35;45.79
62697;BME280;48761;42.680;23.312;2023-02-22T06:28:33;94840.72;;;10.69;45.57
62697;BME280;48761;42.680;23.312;2023-02-22T06:30:59;94834.53;;;10.81;45.09
62697;BME280;48761;42.680;23.312;2023-02-22T06:33:25;94855.22;;;11.40;43.98
62697;BME280;48761;42.680;23.312;2023-02-22T06:35:51;94844.38;;;11.54;43.29
62697;BME280;48761;42.680;23.312;2023-02-22T06:38:24;94836.59;;;11.76;42.96
62697;BME280;48761;42.680;23.312;2023-02-22T06:40:50;94848.25;;;12.23;41.98
62697;BME280;48761;42.680;23.312;2023-02-22T06:43:16;94856.75;;;12.28;41.66
62697;BME280;48761;42.680;23.312;2023-02-22T06:45:42;94856.28;;;12.57;41.25
62697;BME280;48761;42.680;23.312;2023-02-22T06:48:08;94830.34;;;12.25;41.06
62697;BME280;48761;42.680;23.312;2023-02-22T06:50:34;94861.38;;;12.37;41.51
62697;BME280;48761;42.680;23.312;2023-02-22T06:53:00;94834.72;;;12.60;40.95
62697;BME280;48761;42.680;23.312;2023-02-22T06:55:29;94860.66;;;12.93;40.28
62697;BME280;48761;42.680;23.312;2023-02-22T06:57:55;94831.94;;;12.73;40.35
62697;BME280;48761;42.680;23.312;2023-02-22T07:00:23;94858.00;;;13.04;40.24
62697;BME280;48761;42.680;23.312;2023-02-22T07:02:51;94843.19;;;13.11;39.61
62697;BME280;48761;42.680;23.312;2023-02-22T07:05:19;94846.38;;;12.94;39.60
62697;BME280;48761;42.680;23.312;2023-02-22T07:07:46;94848.91;;;13.51;38.68
62697;BME280;48761;42.680;23.312;2023-02-22T07:10:28;94853.16;;;12.86;39.35
62697;BME280;48761;42.680;23.312;2023-02-22T07:12:54;94849.94;;;12.24;40.46
62697;BME280;48761;42.680;23.312;2023-02-22T07:15:22;94805.84;;;12.19;40.23
62697;BME280;48761;42.680;23.312;2023-02-22T07:17:50;94792.06;;;12.26;40.30
62697;BME280;48761;42.680;23.312;2023-02-22T07:20:29;94805.31;;;13.18;38.49
62697;BME280;48761;42.680;23.312;2023-02-22T07:26:05;94816.44;;;12.78;39.46
62697;BME280;48761;42.680;23.312;2023-02-22T07:28:33;94836.56;;;13.39;38.37
62697;BME280;48761;42.680;23.312;2023-02-22T07:31:02;94815.13;;;13.73;37.54
62697;BME280;48761;42.680;23.312;2023-02-22T07:33:37;94839.78;;;14.20;37.20
62697;BME280;48761;42.680;23.312;2023-02-22T07:36:08;94840.56;;;14.32;36.64
62697;BME280;48761;42.680;23.312;2023-02-22T07:38:46;94814.25;;;14.59;35.95
62697;BME280;48761;42.680;23.312;2023-02-22T07:41:18;94788.06;;;14.62;35.78
62697;BME280;48761;42.680;23.312;2023-02-22T07:43:56;94797.50;;;14.98;35.33
62697;BME280;48761;42.680;23.312;2023-02-22T07:46:28;94783.06;;;14.79;35.56
62697;BME280;48761;42.680;23.312;2023-02-22T07:48:54;94839.28;;;15.20;35.25
62697;BME280;48761;42.680;23.312;2023-02-22T07:51:20;94851.78;;;15.10;35.48
62697;BME280;48761;42.680;23.312;2023-02-22T07:53:47;94837.94;;;15.46;35.10
62697;BME280;48761;42.680;23.312;2023-02-22T07:56:15;94787.69;;;15.08;35.39
62697;BME280;48761;42.680;23.312;2023-02-22T07:58:47;94826.25;;;14.96;35.78
62697;BME280;48761;42.680;23.312;2023-02-22T08:01:15;94823.19;;;15.10;35.77
62697;BME280;48761;42.680;23.312;2023-02-22T08:03:44;94837.25;;;15.84;34.69
62697;BME280;48761;42.680;23.312;2023-02-22T08:06:19;94809.16;;;15.48;35.08
62697;BME280;48761;42.680;23.312;2023-02-22T08:08:45;94815.91;;;14.81;35.84
62697;BME280;48761;42.680;23.312;2023-02-22T08:11:11;94802.72;;;14.99;35.47
62697;BME280;48761;42.680;23.312;2023-02-22T08:13:42;94821.88;;;14.63;36.35
62697;BME280;48761;42.680;23.312;2023-02-22T08:16:10;94790.25;;;13.94;37.06
62697;BME280;48761;42.680;23.312;2023-02-22T08:18:42;94776.84;;;14.37;36.71
62697;BME280;48761;42.680;23.312;2023-02-22T08:21:15;94774.16;;;14.37;36.44
62697;BME280;48761;42.680;23.312;2023-02-22T08:23:51;94806.34;;;14.26;37.10
62697;BME280;48761;42.680;23.312;2023-02-22T08:26:23;94770.03;;;14.01;36.97
62697;BME280;48761;42.680;23.312;2023-02-22T08:28:51;94827.09;;;14.65;36.67
62697;BME280;48761;42.680;23.312;2023-02-22T08:31:28;94811.50;;;14.80;36.27
62697;BME280;48761;42.680;23.312;2023-02-22T08:33:53;94779.34;;;14.60;36.41
62697;BME280;48761;42.680;23.312;2023-02-22T08:36:19;94808.75;;;14.92;36.09
62697;BME280;48761;42.680;23.312;2023-02-22T08:38:45;94804.31;;;15.22;35.72
62697;BME280;48761;42.680;23.312;2023-02-22T08:41:11;94795.06;;;15.66;35.20
62697;BME280;48761;42.680;23.312;2023-02-22T08:43:37;94821.44;;;15.90;35.01
62697;BME280;48761;42.680;23.312;2023-02-22T08:46:03;94811.69;;;16.29;34.48
62697;BME280;48761;42.680;23.312;2023-02-22T08:48:29;94822.00;;;16.34;34.69
62697;BME280;48761;42.680;23.312;2023-02-22T08:50:55;94815.78;;;16.03;34.52
62697;BME280;48761;42.680;23.312;2023-02-22T08:53:21;94796.78;;;16.07;34.74
62697;BME280;48761;42.680;23.312;2023-02-22T08:55:47;94806.63;;;16.16;34.56
62697;BME280;48761;42.680;23.312;2023-02-22T09:01:45;94777.28;;;16.63;34.26
62697;BME280;48761;42.680;23.312;2023-02-22T09:04:19;94808.09;;;17.25;33.81
62697;BME280;48761;42.680;23.312;2023-02-22T09:06:51;94790.56;;;17.49;33.55
62697;BME280;48761;42.680;23.312;2023-02-22T09:09:18;94798.63;;;17.67;33.14
62697;BME280;48761;42.680;23.312;2023-02-22T09:11:44;94783.50;;;16.91;33.87
62697;BME280;48761;42.680;23.312;2023-02-22T09:14:14;94808.03;;;17.07;34.09
62697;BME280;48761;42.680;23.312;2023-02-22T09:16:40;94784.03;;;17.05;33.83
62697;BME280;48761;42.680;23.312;2023-02-22T09:19:06;94749.69;;;17.27;33.79
62697;BME280;48761;42.680;23.312;2023-02-22T09:21:32;94785.44;;;17.56;33.16
62697;BME280;48761;42.680;23.312;2023-02-22T09:24:07;94739.44;;;17.41;33.28
62697;BME280;48761;42.680;23.312;2023-02-22T09:26:35;94765.47;;;17.58;33.29
62697;BME280;48761;42.680;23.312;2023-02-22T09:29:01;94737.28;;;17.26;33.10
62697;BME280;48761;42.680;23.312;2023-02-22T09:31:27;94774.47;;;17.49;33.24
62697;BME280;48761;42.680;23.312;2023-02-22T09:33:53;94769.09;;;17.49;33.38
62697;BME280;48761;42.680;23.312;2023-02-22T09:36:24;94733.66;;;17.72;32.78
62697;BME280;48761;42.680;23.312;2023-02-22T09:38:58;94766.91;;;17.71;32.84
62697;BME280;48761;42.680;23.312;2023-02-22T09:41:27;94786.88;;;17.87;32.90
62697;BME280;48761;42.680;23.312;2023-02-22T09:44:14;94737.28;;;17.63;32.44
62697;BME280;48761;42.680;23.312;2023-02-22T09:46:44;94786.84;;;18.23;32.44
62697;BME280;48761;42.680;23.312;2023-02-22T09:49:36;94768.03;;;18.23;32.16
62697;BME280;48761;42.680;23.312;2023-02-22T09:52:06;94773.78;;;18.29;32.18
62697;BME280;48761;42.680;23.312;2023-02-22T09:54:41;94788.25;;;18.28;31.73
62697;BME280;48761;42.680;23.312;2023-02-22T09:57:13;94742.63;;;17.99;32.31
62697;BME280;48761;42.680;23.312;2023-02-22T10:00:17;94771.09;;;18.10;32.45
62697;BME280;48761;42.680;23.312;2023-02-22T10:02:47;94772.72;;;18.21;32.24
62697;BME280;48761;42.680;23.312;2023-02-22T10:05:21;94761.63;;;18.51;31.84
62697;BME280;48761;42.680;23.312;2023-02-22T10:08:00;94749.94;;;18.61;31.27
62697;BME280;48761;42.680;23.312;2023-02-22T10:10:31;94755.41;;;18.51;31.35
62697;BME280;48761;42.680;23.312;2023-02-22T10:13:04;94757.81;;;18.62;31.34
62697;BME280;48761;42.680;23.312;2023-02-22T10:18:50;94755.03;;;19.24;31.09
62697;BME280;48761;42.680;23.312;2023-02-22T10:27:29;94699.59;;;18.53;31.27
62697;BME280;48761;42.680;23.312;2023-02-22T10:30:23;94719.63;;;19.10;31.20
62697;BME280;48761;42.680;23.312;2023-02-22T10:32:55;94703.97;;;19.14;30.79
62697;BME280;48761;42.680;23.312;2023-02-22T10:35:29;94720.84;;;19.16;31.08
62697;BME280;48761;42.680;23.312;2023-02-22T10:40:49;94711.63;;;19.27;31.04
62697;BME280;48761;42.680;23.312;2023-02-22T10:43:17;94650.88;;;18.73;30.83
62697;BME280;48761;42.680;23.312;2023-02-22T10:45:43;94696.19;;;18.94;31.18
62697;BME280;48761;42.680;23.312;2023-02-22T10:48:15;94653.84;;;18.53;31.20
62697;BME280;48761;42.680;23.312;2023-02-22T10:50:45;94676.09;;;18.71;31.23
62697;BME280;48761;42.680;23.312;2023-02-22T10:53:14;94658.00;;;18.90;30.77
62697;BME280;48761;42.680;23.312;2023-02-22T10:56:10;94689.16;;;19.10;30.90
62697;BME280;48761;42.680;23.312;2023-02-22T10:58:57;94687.25;;;18.85;31.22
62697;BME280;48761;42.680;23.312;2023-02-22T11:01:59;94611.38;;;18.38;31.01
62697;BME280;48761;42.680;23.312;2023-02-22T11:04:47;94667.28;;;18.53;31.50
62697;BME280;48761;42.680;23.312;2023-02-22T11:07:33;94678.47;;;18.75;31.74
62697;BME280;48761;42.680;23.312;2023-02-22T11:10:04;94649.97;;;18.55;31.46
62697;BME280;48761;42.680;23.312;2023-02-22T11:12:37;94675.19;;;18.54;31.92
62697;BME280;48761;42.680;23.312;2023-02-22T11:17:48;94599.34;;;18.59;30.68
62697;BME280;48761;42.680;23.312;2023-02-22T11:20:20;94636.06;;;18.77;31.10
62697;BME280;48761;42.680;23.312;2023-02-22T11:22:53;94591.28;;;18.59;31.00
62697;BME280;48761;42.680;23.312;2023-02-22T11:25:26;94606.44;;;18.68;30.54
62697;BME280;48761;42.680;23.312;2023-02-22T11:28:18;94648.25;;;18.98;30.67
62697;BME280;48761;42.680;23.312;2023-02-22T11:30:49;94620.53;;;18.54;30.59
62697;BME280;48761;42.680;23.312;2023-02-22T11:35:53;94600.06;;;18.86;29.69
62697;BME280;48761;42.680;23.312;2023-02-22T11:43:40;94607.94;;;18.71;29.98
62697;BME280;48761;42.680;23.312;2023-02-22T11:46:30;94632.41;;;18.95;29.92
62697;BME280;48761;42.680;23.312;2023-02-22T11:49:08;94587.13;;;18.73;30.06
62697;BME280;48761;42.680;23.312;2023-02-22T11:56:44;94580.84;;;18.56;29.74
62697;BME280;48761;42.680;23.312;2023-02-22T12:01:59;94614.78;;;18.40;30.09
62697;BME280;48761;42.680;23.312;2023-02-22T12:15:38;94604.47;;;18.27;29.85
62697;BME280;48761;42.680;23.312;2023-02-22T12:20:50;94592.59;;;18.46;30.21
62697;BME280;48761;42.680;23.312;2023-02-22T12:26:25;94581.78;;;18.30;30.14
62697;BME280;48761;42.680;23.312;2023-02-22T12:28:56;94589.72;;;18.48;30.27
62697;BME280;48761;42.680;23.312;2023-02-22T12:36:50;94567.47;;;18.29;30.39
62697;BME280;48761;42.680;23.312;2023-02-22T12:42:11;94534.56;;;18.00;30.49
62697;BME280;48761;42.680;23.312;2023-02-22T12:44:54;94519.94;;;17.95;30.20
62697;BME280;48761;42.680;23.312;2023-02-22T12:47:45;94512.34;;;17.90;29.99
62697;BME280;48761;42.680;23.312;2023-02-22T12:50:20;94571.84;;;17.95;30.21
62697;BME280;48761;42.680;23.312;2023-02-22T12:55:36;94568.53;;;18.01;30.16
62697;BME280;48761;42.680;23.312;2023-02-22T12:58:06;94571.25;;;18.10;29.94
62697;BME280;48761;42.680;23.312;2023-02-22T13:00:40;94560.16;;;18.13;30.17
62697;BME280;48761;42.680;23.312;2023-02-22T13:05:39;94558.31;;;18.13;29.62
62697;BME280;48761;42.680;23.312;2023-02-22T13:11:01;94561.06;;;17.87;30.50
62697;BME280;48761;42.680;23.312;2023-02-22T13:16:37;94563.88;;;18.12;30.85
62697;BME280;48761;42.680;23.312;2023-02-22T13:29:39;94549.75;;;18.10;30.16
62697;BME280;48761;42.680;23.312;2023-02-22T13:45:46;94549.47;;;17.86;30.78
62697;BME280;48761;42.680;23.312;2023-02-22T13:51:29;94545.25;;;17.84;31.26
62697;BME280;48761;42.680;23.312;2023-02-22T13:56:45;94497.56;;;17.51;31.50
62697;BME280;48761;42.680;23.312;2023-02-22T14:01:50;94531.38;;;17.62;31.53
62697;BME280;48761;42.680;23.312;2023-02-22T14:17:37;94538.41;;;17.63;32.09
62697;BME280;48761;42.680;23.312;2023-02-22T14:20:17;94527.03;;;17.42;32.14
62697;BME280;48761;42.680;23.312;2023-02-22T14:22:46;94496.50;;;17.17;32.12
62697;BME280;48761;42.680;23.312;2023-02-22T14:25:38;94542.34;;;17.42;32.25
62697;BME280;48761;42.680;23.312;2023-02-22T14:31:53;94534.00;;;17.53;31.83
62697;BME280;48761;42.680;23.312;2023-02-22T14:34:03;94547.13;;;17.56;31.92
62697;BME280;48761;42.680;23.312;2023-02-22T14:39:36;94539.66;;;17.42;31.54
62697;BME280;48761;42.680;23.312;2023-02-22T14:42:09;94543.06;;;17.52;31.57
62697;BME280;48761;42.680;23.312;2023-02-22T14:44:47;94542.34;;;17.42;32.36
62697;BME280;48761;42.680;23.312;2023-02-22T14:47:20;94533.47;;;17.50;32.45
62697;BME280;48761;42.680;23.312;2023-02-22T14:49:49;94535.50;;;17.29;32.52
62697;BME280;48761;42.680;23.312;2023-02-22T14:52:31;94504.69;;;17.15;32.79
62697;BME280;48761;42.680;23.312;2023-02-22T14:55:10;94511.38;;;17.11;33.04
62697;BME280;48761;42.680;23.312;2023-02-22T14:57:47;94529.25;;;17.02;32.54
62697;BME280;48761;42.680;23.312;2023-02-22T15:00:24;94502.69;;;16.90;32.53
62697;BME280;48761;42.680;23.312;2023-02-22T15:02:51;94518.03;;;17.07;32.44
62697;BME280;48761;42.680;23.312;2023-02-22T15:05:18;94520.44;;;17.10;32.40
62697;BME280;48761;42.680;23.312;2023-02-22T15:07:57;94533.63;;;17.03;32.53
62697;BME280;48761;42.680;23.312;2023-02-22T15:10:28;94501.91;;;16.80;32.68
62697;BME280;48761;42.680;23.312;2023-02-22T15:12:58;94501.75;;;16.81;32.83
62697;BME280;48761;42.680;23.312;2023-02-22T15:15:25;94514.78;;;16.95;33.15
62697;BME280;48761;42.680;23.312;2023-02-22T15:17:54;94506.66;;;16.86;33.40
62697;BME280;48761;42.680;23.312;2023-02-22T15:20:22;94518.09;;;16.88;33.71
62697;BME280;48761;42.680;23.312;2023-02-22T15:22:49;94516.28;;;16.71;34.32
62697;BME280;48761;42.680;23.312;2023-02-22T15:25:23;94518.78;;;16.90;34.51
62697;BME280;48761;42.680;23.312;2023-02-22T15:27:50;94541.91;;;16.91;34.83
62697;BME280;48761;42.680;23.312;2023-02-22T15:30:21;94533.81;;;16.83;35.03
62697;BME280;48761;42.680;23.312;2023-02-22T15:32:47;94515.94;;;16.74;34.87
62697;BME280;48761;42.680;23.312;2023-02-22T15:38:00;94543.88;;;16.63;35.76
62697;BME280;48761;42.680;23.312;2023-02-22T15:40:27;94549.16;;;16.73;35.95
62697;BME280;48761;42.680;23.312;2023-02-22T15:42:53;94542.47;;;16.58;36.17
62697;BME280;48761;42.680;23.312;2023-02-22T15:45:21;94540.72;;;16.67;35.96
62697;BME280;48761;42.680;23.312;2023-02-22T15:47:51;94535.44;;;16.57;35.98